メインページ
METAR-TAF:

METAR-TAF

空港 :

ブルネイ国際空港

ブルネイ, ブルネイ

緯度: 04-56N, 経度: 114-56E, 海抜: 22m

現時点の気象観測

当レポートは16分前の10:00(UTC)に作成
西/北西の風 3kt
気温 31°C
湿度 75%
気圧 1006 hPa
視程: 7000m
高度1500ftの雲はほとんどない
高度1600ftの雲はほとんどない, 積乱雲.
高度28000ftの千切れ雲あり
激しい雷雨

METAR: WBSB 181000Z 30003KT 7000 TS FEW015 FEW016CB BKN280 31/26 Q1006 NOSIG

時間: 18:16 (10:16 UTC)

予報

当レポートは5時間26分前の04:50(UTC)に作成
予報は18日の 06時(UTC)から 19日の 12時(UTC)まで有効
西/北西の風 8kt
視程: 7000m
高度1600ftの雲はほとんどない
高度1700ftの雲はほとんどない, 積乱雲.
18日の 06時(UTC)から 18日の 08時(UTC)まで一時的に
視程: 6000m
弱いにわか雨
18日の 14時(UTC)から 18日の 16時(UTC)まで徐々に
南/南西の風 4kt
高度1500ftの雲はほとんどない

TAF: WBSB 180450Z 1806/1912 30008KT 7000 FEW016 FEW017CB TEMPO 1806/1808 6000 -SHRA BECMG 1814/1816 20004KT FEW015

4,000以上の空港の気象観測と天気予報(METAR報とTAF報)

利用可能な観測所は地図上に黄色い丸と赤い丸で示す。

丸の上にカーソルを重ねると観測所名を参照できる。

次にクリックすると気象観測と天気予報を参照できる。

マップの切り替え:黒色「×」印の緑ボタンをクリックして拡大、「-」印の緑ボタンをクリックして縮小、緑色の三角印をクリックして隣りの地図に切り替え


METAR-TAF: